createdAt,value
2022-09-28T00:03:58.222Z,360.21622
2022-09-28T00:08:59.951Z,346.61438
2022-09-28T00:14:01.614Z,346.61438
2022-09-28T00:19:03.279Z,333.87342
2022-09-28T00:24:04.963Z,321.91411
2022-09-28T00:29:06.588Z,354.66667
2022-09-28T00:34:08.217Z,363.04762
2022-09-28T00:39:09.867Z,377.80282
2022-09-28T00:44:11.536Z,363.04762
2022-09-28T00:49:13.226Z,346.61438
2022-09-28T00:54:14.875Z,338.87179
2022-09-28T00:59:16.657Z,349.26316
2022-09-28T01:04:18.348Z,357.42282
2022-09-28T01:09:19.950Z,371.77778
2022-09-28T01:14:21.601Z,357.42282
2022-09-28T01:19:23.216Z,377.80282
2022-09-28T01:24:24.807Z,377.80282
2022-09-28T01:29:26.407Z,354.66667
2022-09-28T01:34:28.021Z,349.26316
2022-09-28T01:39:29.611Z,349.26316
2022-09-28T01:44:31.193Z,351.94702
2022-09-28T01:49:32.766Z,351.94702
2022-09-28T01:54:34.416Z,351.94702
2022-09-28T01:59:36.024Z,344
2022-09-28T02:04:37.586Z,354.66667
2022-09-28T02:09:39.224Z,351.94702
2022-09-28T02:14:40.809Z,368.82759
2022-09-28T02:19:42.406Z,377.80282
2022-09-28T02:24:44.066Z,374.76923
2022-09-28T02:29:45.653Z,384
2022-09-28T02:34:47.351Z,377.80282
2022-09-28T02:39:49.004Z,377.80282
2022-09-28T02:44:50.594Z,368.82759
2022-09-28T02:49:52.346Z,363.04762
2022-09-28T02:54:53.930Z,368.82759
2022-09-28T02:59:55.505Z,377.80282
2022-09-28T03:04:57.082Z,400.2963
2022-09-28T03:09:58.679Z,384
2022-09-28T03:15:00.285Z,390.37681
2022-09-28T03:20:01.844Z,387.16547
2022-09-28T03:25:03.447Z,387.16547
2022-09-28T03:30:05.039Z,380.87943
2022-09-28T03:35:06.677Z,387.16547
2022-09-28T03:40:08.282Z,400.2963
2022-09-28T03:45:09.904Z,396.94118
2022-09-28T03:50:11.512Z,396.94118
2022-09-28T03:55:13.430Z,407.15789
2022-09-28T04:00:15.012Z,414.22901
2022-09-28T04:05:16.644Z,410.66667
2022-09-28T04:10:18.260Z,414.22901
2022-09-28T04:15:19.952Z,400.2963
2022-09-28T04:20:21.528Z,414.22901
2022-09-28T04:25:23.163Z,421.51938
2022-09-28T04:30:24.712Z,432.88889
2022-09-28T04:35:26.629Z,440.77419
2022-09-28T04:40:28.394Z,448.91803
2022-09-28T04:45:30.111Z,436.8
2022-09-28T04:50:31.796Z,448.91803
2022-09-28T04:55:33.400Z,453.09091
2022-09-28T05:00:34.988Z,453.09091
2022-09-28T05:05:36.647Z,448.91803
2022-09-28T05:10:38.303Z,436.8
2022-09-28T05:15:39.943Z,429.03937
2022-09-28T05:20:41.555Z,429.03937
2022-09-28T05:25:43.130Z,421.51938
2022-09-28T05:30:44.791Z,429.03937
2022-09-28T05:35:49.797Z,425.25
2022-09-28T05:40:54.359Z,440.77419
2022-09-28T05:45:56.182Z,444.81301
2022-09-28T05:50:57.866Z,484.35088
2022-09-28T05:55:59.487Z,479.65217
2022-09-28T06:01:01.172Z,470.49573
2022-09-28T06:06:02.900Z,475.03448
2022-09-28T06:11:04.491Z,475.03448
2022-09-28T06:16:06.089Z,484.35088
2022-09-28T06:21:07.680Z,457.33333
2022-09-28T06:26:09.309Z,453.09091
2022-09-28T06:31:11.045Z,444.81301
2022-09-28T06:36:12.729Z,440.77419
2022-09-28T06:41:14.327Z,440.77419
2022-09-28T06:46:15.977Z,444.81301
2022-09-28T06:51:17.632Z,448.91803
2022-09-28T06:56:19.275Z,453.09091
2022-09-28T07:01:20.982Z,453.09091
2022-09-28T07:06:22.678Z,475.03448
2022-09-28T07:11:24.300Z,475.03448
2022-09-28T07:16:30.362Z,470.49573
2022-09-28T07:21:37.004Z,475.03448
2022-09-28T07:26:38.604Z,484.35088
2022-09-28T07:31:40.253Z,479.65217
2022-09-28T07:36:41.859Z,484.35088
2022-09-28T07:41:43.494Z,498.95495
2022-09-28T07:46:45.184Z,498.95495
2022-09-28T07:51:46.823Z,498.95495
2022-09-28T07:56:48.436Z,498.95495
2022-09-28T08:01:50.029Z,498.95495
2022-09-28T08:06:51.679Z,494
2022-09-28T08:11:53.281Z,498.95495
2022-09-28T08:16:54.882Z,489.13274
2022-09-28T08:21:56.551Z,489.13274
2022-09-28T08:26:58.158Z,494
2022-09-28T08:32:01.584Z,509.13761
2022-09-28T08:37:03.711Z,530.66667
2022-09-28T08:42:05.289Z,536.30769
2022-09-28T08:47:06.948Z,519.70093
2022-09-28T08:52:08.559Z,519.70093
2022-09-28T08:57:10.162Z,525.13208
2022-09-28T09:02:11.791Z,525.13208
2022-09-28T09:07:13.555Z,525.13208
2022-09-28T09:12:15.131Z,530.66667
2022-09-28T09:17:16.749Z,530.66667
2022-09-28T09:22:18.434Z,525.13208
2022-09-28T09:27:20.096Z,530.66667
2022-09-28T09:32:21.677Z,525.13208
2022-09-28T09:37:23.261Z,514.37037
2022-09-28T09:42:24.842Z,514.37037
2022-09-28T09:47:26.423Z,519.70093
2022-09-28T09:52:28.227Z,519.70093
2022-09-28T09:57:29.903Z,514.37037
2022-09-28T10:02:31.562Z,504
2022-09-28T10:07:33.261Z,509.13761
2022-09-28T10:12:34.867Z,498.95495
2022-09-28T10:17:36.488Z,494
2022-09-28T10:22:38.086Z,504
2022-09-28T10:27:39.725Z,484.35088
2022-09-28T10:32:41.315Z,484.35088
2022-09-28T10:37:42.890Z,484.35088
2022-09-28T10:42:44.532Z,494
2022-09-28T10:47:46.126Z,494
2022-09-28T10:52:47.695Z,489.13274
2022-09-28T10:57:49.345Z,484.35088
2022-09-28T11:02:51.003Z,479.65217
2022-09-28T11:07:52.697Z,489.13274
2022-09-28T11:12:54.286Z,489.13274
2022-09-28T11:17:55.865Z,504
2022-09-28T11:22:57.486Z,509.13761
2022-09-28T11:27:59.064Z,498.95495
2022-09-28T11:33:00.638Z,514.37037
2022-09-28T11:38:02.205Z,504
2022-09-28T11:48:05.609Z,509.13761
2022-09-28T11:53:07.219Z,509.13761
2022-09-28T11:58:08.897Z,509.13761
2022-09-28T12:03:10.577Z,514.37037
2022-09-28T12:08:12.315Z,509.13761
2022-09-28T12:13:13.917Z,514.37037
2022-09-28T12:18:15.615Z,519.70093
2022-09-28T12:23:17.371Z,519.70093
2022-09-28T12:28:18.996Z,525.13208
2022-09-28T12:33:20.573Z,519.70093
2022-09-28T12:38:22.202Z,519.70093
2022-09-28T12:43:23.799Z,519.70093
2022-09-28T12:48:25.388Z,525.13208
2022-09-28T12:53:27.012Z,530.66667
2022-09-28T12:58:28.616Z,514.37037
2022-09-28T13:03:30.204Z,509.13761
2022-09-28T13:08:31.808Z,504
2022-09-28T13:13:33.530Z,509.13761
2022-09-28T13:18:35.141Z,509.13761
2022-09-28T13:23:36.764Z,504
2022-09-28T13:28:38.362Z,504
2022-09-28T13:33:39.977Z,504
2022-09-28T13:38:41.623Z,514.37037
2022-09-28T13:43:43.222Z,514.37037
2022-09-28T13:48:44.854Z,498.95495
2022-09-28T13:53:46.460Z,489.13274
2022-09-28T13:58:48.059Z,489.13274
2022-09-28T14:03:49.675Z,494
2022-09-28T14:08:51.416Z,489.13274
2022-09-28T14:13:53.033Z,484.35088
2022-09-28T14:18:54.640Z,470.49573
2022-09-28T14:23:59.113Z,484.35088
2022-09-28T14:29:01.812Z,448.91803
2022-09-28T14:34:03.435Z,457.33333
2022-09-28T14:39:05.030Z,461.64706
2022-09-28T14:44:06.620Z,453.09091
2022-09-28T14:49:08.419Z,453.09091
2022-09-28T14:54:10.047Z,453.09091
2022-09-28T14:59:11.768Z,444.81301
2022-09-28T15:04:13.617Z,453.09091
2022-09-28T15:09:15.431Z,461.64706
2022-09-28T15:14:17.191Z,457.33333
2022-09-28T15:19:18.811Z,461.64706
2022-09-28T15:24:20.449Z,475.03448
2022-09-28T15:29:22.078Z,504
2022-09-28T15:34:23.690Z,525.13208
2022-09-28T15:39:25.288Z,530.66667
2022-09-28T15:44:26.912Z,530.66667
2022-09-28T15:49:28.557Z,519.70093
2022-09-28T15:54:30.146Z,498.95495
2022-09-28T15:59:31.726Z,489.13274
2022-09-28T16:04:33.327Z,498.95495
2022-09-28T16:09:40.929Z,494
2022-09-28T16:14:42.754Z,525.13208
2022-09-28T16:19:44.378Z,542.05825
2022-09-28T16:24:46.164Z,536.30769
2022-09-28T16:29:47.762Z,489.13274
2022-09-28T16:34:49.390Z,509.13761
2022-09-28T16:39:51.014Z,498.95495
2022-09-28T16:44:52.657Z,489.13274
2022-09-28T16:49:54.297Z,489.13274
2022-09-28T16:54:55.892Z,484.35088
2022-09-28T16:59:57.493Z,489.13274
2022-09-28T17:04:59.099Z,494
2022-09-28T17:10:00.711Z,484.35088
2022-09-28T17:15:02.397Z,475.03448
2022-09-28T17:20:04.085Z,494
2022-09-28T17:25:07.264Z,498.95495
2022-09-28T17:30:10.923Z,519.70093
2022-09-28T17:35:24.004Z,514.37037
2022-09-28T17:40:27.077Z,514.37037
2022-09-28T17:45:28.840Z,504
2022-09-28T17:50:30.487Z,498.95495
2022-09-28T17:55:32.116Z,498.95495
2022-09-28T18:00:33.728Z,484.35088
2022-09-28T18:05:35.372Z,475.03448
2022-09-28T18:10:36.976Z,475.03448
2022-09-28T18:15:38.679Z,484.35088
2022-09-28T18:20:40.378Z,475.03448
2022-09-28T18:25:41.985Z,530.66667
2022-09-28T18:30:43.600Z,536.30769
2022-09-28T18:35:45.293Z,498.95495
2022-09-28T18:40:47.022Z,470.49573
2022-09-28T18:45:48.663Z,494
2022-09-28T18:50:50.281Z,525.13208
2022-09-28T18:55:51.854Z,514.37037
2022-09-28T19:01:00.931Z,498.95495
2022-09-28T19:06:15.497Z,525.13208
2022-09-28T19:11:17.192Z,514.37037
2022-09-28T19:16:18.846Z,498.95495
2022-09-28T19:21:20.457Z,461.64706
2022-09-28T19:26:22.091Z,470.49573
2022-09-28T19:31:23.707Z,470.49573
2022-09-28T19:36:25.406Z,457.33333
2022-09-28T19:41:27.024Z,440.77419
2022-09-28T19:46:28.800Z,448.91803
2022-09-28T19:51:30.413Z,457.33333
2022-09-28T19:56:32.039Z,457.33333
2022-09-28T20:01:33.696Z,453.09091
2022-09-28T20:06:35.364Z,429.03937
2022-09-28T20:11:37.047Z,429.03937
2022-09-28T20:16:38.672Z,414.22901
2022-09-28T20:21:40.321Z,421.51938
2022-09-28T20:26:41.890Z,429.03937
2022-09-28T20:31:43.531Z,429.03937
2022-09-28T20:36:45.168Z,432.88889
2022-09-28T20:41:46.768Z,448.91803
2022-09-28T20:46:48.355Z,461.64706
2022-09-28T20:51:49.963Z,432.88889
2022-09-28T20:56:51.529Z,436.8
2022-09-28T21:01:53.137Z,429.03937
2022-09-28T21:06:54.754Z,414.22901
2022-09-28T21:11:56.364Z,417.84615
2022-09-28T21:16:57.933Z,425.25
2022-09-28T21:21:59.561Z,400.2963
2022-09-28T21:27:01.176Z,429.03937
2022-09-28T21:32:02.769Z,421.51938
2022-09-28T21:37:04.389Z,410.66667
2022-09-28T21:42:05.996Z,421.51938
2022-09-28T21:47:07.638Z,444.81301
2022-09-28T21:52:09.252Z,432.88889
2022-09-28T21:57:10.852Z,440.77419
2022-09-28T22:02:12.473Z,453.09091
2022-09-28T22:07:14.082Z,407.15789
2022-09-28T22:12:15.694Z,421.51938
2022-09-28T22:17:17.294Z,400.2963
2022-09-28T22:22:18.897Z,444.81301
2022-09-28T22:27:20.666Z,457.33333
2022-09-28T22:32:22.281Z,436.8
2022-09-28T22:37:23.883Z,470.49573
2022-09-28T22:42:25.525Z,475.03448
2022-09-28T22:47:27.142Z,436.8
2022-09-28T22:52:28.752Z,436.8
2022-09-28T22:57:30.363Z,407.15789
2022-09-28T23:02:32.013Z,417.84615
2022-09-28T23:07:33.621Z,414.22901
2022-09-28T23:12:35.232Z,421.51938
2022-09-28T23:17:36.881Z,461.64706
2022-09-28T23:22:38.592Z,457.33333
2022-09-28T23:27:40.199Z,436.8
2022-09-28T23:32:41.855Z,417.84615
2022-09-28T23:37:43.460Z,417.84615
2022-09-28T23:42:45.053Z,421.51938
2022-09-28T23:47:46.645Z,429.03937
2022-09-28T23:52:48.269Z,387.16547
2022-09-28T23:57:49.897Z,403.70149
